Stations météo

réclame
Mon MeteoGroup
Cairngorm, Grande-Bretagne (3065): Température de l'air & dewpoint: 17.07.2018 08:00:00 - 23.07.2018 08:00:00 (BST)Cairngorm, Grande-Bretagne (3065): Vitesse du vent & gusts: 17.07.2018 08:00:00 - 23.07.2018 08:00:00 (BST)Cairngorm, Grande-Bretagne (3065): Direction du vent: 17.07.2018 08:00:00 - 23.07.2018 08:00:00 (BST)
Date & Time tt [°C] td [°C] ff [km/h] ff [knt] fx [km/h] fx [knt] dd
23.07.2018 08:00:00 10,6 10,6 61 33 85 46 WSW
23.07.2018 07:00:00 10,6 10,6 55 30 80 43 WSW
23.07.2018 06:00:00 10,7 10,7 63 34 81 44 SW
23.07.2018 05:00:00 10,6 10,6 54 29 81 44 SW
23.07.2018 04:00:00 10,7 10,7 70 38 94 51 WSW
23.07.2018 03:00:00 10,8 10,8 78 42 94 51 WSW
23.07.2018 02:00:00 11,3 10,9 76 41 96 52 WSW
23.07.2018 01:00:00 11,2 11,2 35 19 72 39 SW
23.07.2018 00:00:00 11,1 10,9 70 38 85 46 WSW
22.07.2018 23:00:00 11,1 10,7 50 27 83 45 WSW
22.07.2018 22:00:00 12,3 10,1 65 35 85 46 WSW
22.07.2018 21:00:00 11,4 11,0 59 32 83 45 WSW
22.07.2018 20:00:00 11,9 11,4 48 26 74 40 W
22.07.2018 19:00:00 12,6 11,1 48 26 74 40 W
22.07.2018 18:00:00 13,2 11,4 55 30 80 43 W
22.07.2018 17:00:00 13,2 11,8 50 27 81 44 W
22.07.2018 16:00:00 13,6 11,4 57 31 83 45 WSW
22.07.2018 15:00:00 13,3 12,9 68 37 85 46 W
22.07.2018 14:00:00 12,4 12,3 63 34 91 49 W
22.07.2018 13:00:00 12,4 12,4 55 30 78 42 W
22.07.2018 12:00:00 12,2 12,2 57 31 96 52 W
22.07.2018 11:00:00 12,2 12,2 78 42 107 58 W
22.07.2018 10:00:00 12,2 12,1 68 37 102 55 W
22.07.2018 09:00:00 12,1 12,0 72 39 111 60 W
22.07.2018 08:00:00 11,9 11,9 83 45 113 61 W
22.07.2018 07:00:00 11,6 11,6 74 40 98 53 W
22.07.2018 06:00:00 11,3 11,3 65 35 91 49 W
22.07.2018 05:00:00 12,2 12,1 65 35 81 44 W
22.07.2018 04:00:00 12,8 12,8 67 36 78 42 W
22.07.2018 03:00:00 12,4 12,4 65 35 81 44 WNW
22.07.2018 02:00:00 10,9 10,9 48 26 65 35 WNW
22.07.2018 01:00:00 10,9 10,9 41 22 54 29 WNW
22.07.2018 00:00:00 9,7 9,7 34 18 46 25 WNW
21.07.2018 23:00:00 10,6 10,5 35 19 - - W
21.07.2018 22:00:00 10,1 10,1 26 14 48 26 W
21.07.2018 21:00:00 9,8 9,8 34 18 46 25 W
21.07.2018 20:00:00 9,0 8,9 22 12 - - WNW
21.07.2018 19:00:00 9,1 8,7 22 12 - - W
21.07.2018 18:00:00 10,2 5,2 24 13 - - W
21.07.2018 17:00:00 10,6 4,1 18 10 - - W
21.07.2018 16:00:00 10,7 6,7 18 10 - - WNW
21.07.2018 15:00:00 10,8 6,4 18 10 - - WNW
21.07.2018 14:00:00 12,1 6,3 11 6 - - W
21.07.2018 13:00:00 11,7 5,9 8 4 - - W
21.07.2018 12:00:00 9,1 7,5 26 14 - - W
21.07.2018 11:00:00 9,0 7,8 16 9 - - W
21.07.2018 10:00:00 8,8 6,7 13 7 - - W
21.07.2018 09:00:00 8,9 7,6 11 6 - - WSW
21.07.2018 08:00:00 8,7 6,9 15 8 - - WSW
21.07.2018 07:00:00 8,0 8,0 24 13 - - W
21.07.2018 06:00:00 8,6 8,6 22 12 - - W
21.07.2018 05:00:00 8,5 8,5 22 12 - - W
21.07.2018 04:00:00 9,0 9,0 15 8 - - W
21.07.2018 03:00:00 9,0 9,0 21 11 - - WNW
21.07.2018 02:00:00 8,9 8,9 15 8 - - W
21.07.2018 01:00:00 9,1 9,1 11 6 - - W
21.07.2018 00:00:00 9,0 9,0 11 6 - - WNW
20.07.2018 23:00:00 9,0 9,0 8 4 - - WNW
20.07.2018 22:00:00 9,5 9,5 15 8 - - NW
20.07.2018 21:00:00 9,6 9,6 - - - - -
20.07.2018 20:00:00 9,9 9,8 - - - - -
20.07.2018 19:00:00 9,8 9,6 - - - - -
20.07.2018 18:00:00 9,6 8,9 18 10 - - NW
20.07.2018 17:00:00 9,6 9,4 22 12 - - NW
20.07.2018 16:00:00 9,6 9,5 24 13 - - NW
20.07.2018 15:00:00 9,6 9,1 16 9 - - WNW
20.07.2018 14:00:00 9,4 8,3 24 13 - - WNW
20.07.2018 13:00:00 8,8 7,6 26 14 - - W
20.07.2018 12:00:00 8,2 8,2 34 18 46 25 W
20.07.2018 11:00:00 7,8 7,8 29 16 - - W
20.07.2018 10:00:00 7,4 7,4 22 12 - - W
20.07.2018 09:00:00 7,9 7,8 28 15 46 25 W
20.07.2018 08:00:00 7,9 7,9 29 16 50 27 W
20.07.2018 07:00:00 7,6 7,6 31 17 50 27 WSW
20.07.2018 06:00:00 7,8 7,8 34 18 54 29 WSW
20.07.2018 05:00:00 7,7 7,7 37 20 55 30 W
20.07.2018 04:00:00 7,9 7,6 29 16 63 34 W
20.07.2018 03:00:00 8,4 8,1 39 21 57 31 W
20.07.2018 02:00:00 7,5 7,0 37 20 57 31 W
20.07.2018 01:00:00 6,9 6,0 21 11 - - W
20.07.2018 00:00:00 7,2 5,7 34 18 - - WSW
19.07.2018 23:00:00 7,7 4,2 21 11 - - W
19.07.2018 22:00:00 6,2 4,1 26 14 46 25 SSW
19.07.2018 21:00:00 7,0 4,4 35 19 50 27 S
19.07.2018 20:00:00 7,4 4,5 34 18 48 26 SSW
19.07.2018 19:00:00 9,0 3,3 31 17 - - SSW
19.07.2018 18:00:00 10,3 2,7 - - - - -
19.07.2018 17:00:00 11,0 3,9 26 14 - - SW
19.07.2018 16:00:00 10,0 2,6 28 15 - - SSW
19.07.2018 15:00:00 10,1 3,6 24 13 - - SW
19.07.2018 14:00:00 10,1 2,6 24 13 - - WSW
19.07.2018 13:00:00 10,3 3,2 21 11 - - SW
19.07.2018 12:00:00 9,8 3,1 29 16 - - SW
19.07.2018 11:00:00 9,6 2,6 22 12 - - WSW
19.07.2018 10:00:00 9,0 2,1 28 15 - - SSW
19.07.2018 09:00:00 8,5 0,6 26 14 - - SW
19.07.2018 08:00:00 7,8 1,5 21 11 - - WSW
19.07.2018 07:00:00 7,2 0,6 22 12 - - SW
19.07.2018 06:00:00 7,1 2,7 26 14 - - SW
19.07.2018 05:00:00 6,7 3,1 26 14 - - SW
19.07.2018 04:00:00 6,8 5,3 26 14 - - SW
19.07.2018 03:00:00 6,7 4,8 24 13 - - SW
19.07.2018 02:00:00 6,7 4,7 24 13 - - SW
19.07.2018 01:00:00 6,8 4,6 21 11 - - SW
19.07.2018 00:00:00 6,2 5,7 15 8 - - S
18.07.2018 23:00:00 6,5 5,0 8 4 - - SW
18.07.2018 22:00:00 6,7 4,6 9 5 - - WNW
18.07.2018 21:00:00 7,8 3,9 11 6 - - W
18.07.2018 20:00:00 8,5 3,1 13 7 - - W
18.07.2018 19:00:00 9,0 3,2 9 5 - - W
18.07.2018 18:00:00 8,6 2,5 5 3 - - NW
18.07.2018 17:00:00 8,4 2,3 13 7 - - W
18.07.2018 16:00:00 8,3 2,3 21 11 - - WNW
18.07.2018 15:00:00 8,0 0,9 21 11 - - WNW
18.07.2018 14:00:00 9,1 2,7 18 10 - - W
18.07.2018 13:00:00 7,4 1,0 16 9 - - W
18.07.2018 12:00:00 8,1 0,8 21 11 - - W
18.07.2018 11:00:00 6,9 1,3 15 8 - - W
18.07.2018 10:00:00 5,6 1,3 22 12 - - W
18.07.2018 09:00:00 4,9 2,7 22 12 - - WNW
18.07.2018 08:00:00 4,4 2,4 24 13 - - W
18.07.2018 07:00:00 4,8 2,7 8 4 - - SW
18.07.2018 06:00:00 5,1 1,7 22 12 - - W
18.07.2018 05:00:00 4,5 3,6 22 12 - - W
18.07.2018 04:00:00 4,6 3,3 22 12 - - W
18.07.2018 03:00:00 4,9 3,0 22 12 - - W
18.07.2018 02:00:00 4,6 3,7 18 10 - - W
18.07.2018 01:00:00 4,0 3,7 21 11 - - W
18.07.2018 00:00:00 4,6 2,8 22 12 - - W
17.07.2018 23:00:00 5,0 4,3 21 11 - - W
17.07.2018 22:00:00 5,0 4,8 29 16 - - WNW
17.07.2018 21:00:00 5,5 4,7 29 16 46 25 W
17.07.2018 20:00:00 6,1 5,2 28 15 - - W
17.07.2018 19:00:00 6,0 5,3 26 14 - - WNW
17.07.2018 18:00:00 6,3 5,2 22 12 - - W
17.07.2018 17:00:00 6,2 5,1 21 11 - - W
17.07.2018 16:00:00 7,3 5,5 22 12 - - W
17.07.2018 15:00:00 6,6 5,7 13 7 - - WSW
17.07.2018 14:00:00 6,6 5,8 16 9 - - W
17.07.2018 13:00:00 6,9 6,0 9 5 - - SW
17.07.2018 12:00:00 6,3 3,0 11 6 - - WNW
17.07.2018 11:00:00 6,4 3,3 11 6 - - WNW
17.07.2018 10:00:00 5,5 4,7 15 8 - - W
17.07.2018 09:00:00 5,5 4,2 16 9 - - WNW
17.07.2018 08:00:00 5,5 3,9 15 8 - - WNW

tt = Température de l'air
td = dewpoint
ff = Vitesse du vent
fx = gusts
dd = Direction du vent

stations d'obs. à proximité